sensor_id;sensor_type;location;lat;lon;timestamp;temperature;humidity
46608;DHT22;32330;51.936;7.184;2022-09-14T00:02:12;17.30;99.90
46608;DHT22;32330;51.936;7.184;2022-09-14T00:04:38;17.30;99.90
46608;DHT22;32330;51.936;7.184;2022-09-14T00:07:06;17.30;99.90
46608;DHT22;32330;51.936;7.184;2022-09-14T00:09:31;17.30;99.90
46608;DHT22;32330;51.936;7.184;2022-09-14T00:11:57;17.30;99.90
46608;DHT22;32330;51.936;7.184;2022-09-14T00:14:22;17.30;99.90
46608;DHT22;32330;51.936;7.184;2022-09-14T00:16:48;17.30;99.90
46608;DHT22;32330;51.936;7.184;2022-09-14T00:19:19;17.30;99.90
46608;DHT22;32330;51.936;7.184;2022-09-14T00:21:45;17.30;99.90
46608;DHT22;32330;51.936;7.184;2022-09-14T00:24:13;17.30;99.90
46608;DHT22;32330;51.936;7.184;2022-09-14T00:26:39;17.30;99.90
46608;DHT22;32330;51.936;7.184;2022-09-14T00:29:04;17.30;99.90
46608;DHT22;32330;51.936;7.184;2022-09-14T00:31:34;17.30;99.90
46608;DHT22;32330;51.936;7.184;2022-09-14T00:33:59;17.30;99.90
46608;DHT22;32330;51.936;7.184;2022-09-14T00:36:27;17.30;99.90
46608;DHT22;32330;51.936;7.184;2022-09-14T00:38:53;17.30;99.90
46608;DHT22;32330;51.936;7.184;2022-09-14T00:41:26;17.30;99.90
46608;DHT22;32330;51.936;7.184;2022-09-14T00:46:24;17.20;99.90
46608;DHT22;32330;51.936;7.184;2022-09-14T00:48:50;17.20;99.90
46608;DHT22;32330;51.936;7.184;2022-09-14T00:51:16;17.30;99.90
46608;DHT22;32330;51.936;7.184;2022-09-14T00:53:42;17.30;99.90
46608;DHT22;32330;51.936;7.184;2022-09-14T00:56:08;17.30;99.90
46608;DHT22;32330;51.936;7.184;2022-09-14T00:58:33;17.20;99.90
46608;DHT22;32330;51.936;7.184;2022-09-14T01:00:59;17.20;99.90
46608;DHT22;32330;51.936;7.184;2022-09-14T01:03:26;17.20;99.90
46608;DHT22;32330;51.936;7.184;2022-09-14T01:08:42;17.20;99.90
46608;DHT22;32330;51.936;7.184;2022-09-14T01:11:07;17.20;99.90
46608;DHT22;32330;51.936;7.184;2022-09-14T01:13:39;17.20;99.90
46608;DHT22;32330;51.936;7.184;2022-09-14T01:19:00;17.20;99.90
46608;DHT22;32330;51.936;7.184;2022-09-14T01:21:32;17.10;99.90
46608;DHT22;32330;51.936;7.184;2022-09-14T01:25:02;17.10;99.90
46608;DHT22;32330;51.936;7.184;2022-09-14T01:29:21;17.10;99.90
46608;DHT22;32330;51.936;7.184;2022-09-14T01:34:16;17.10;99.90
46608;DHT22;32330;51.936;7.184;2022-09-14T01:36:43;17.00;99.90
46608;DHT22;32330;51.936;7.184;2022-09-14T01:39:11;17.00;99.90
46608;DHT22;32330;51.936;7.184;2022-09-14T01:41:39;17.00;99.90
46608;DHT22;32330;51.936;7.184;2022-09-14T01:44:14;17.00;99.90
46608;DHT22;32330;51.936;7.184;2022-09-14T01:46:52;17.00;99.90
46608;DHT22;32330;51.936;7.184;2022-09-14T01:49:21;17.00;99.90
46608;DHT22;32330;51.936;7.184;2022-09-14T01:51:49;17.00;99.90
46608;DHT22;32330;51.936;7.184;2022-09-14T01:54:24;17.00;99.90
46608;DHT22;32330;51.936;7.184;2022-09-14T01:56:55;17.00;99.90
46608;DHT22;32330;51.936;7.184;2022-09-14T01:59:25;17.00;99.90
46608;DHT22;32330;51.936;7.184;2022-09-14T02:04:19;17.00;99.90
46608;DHT22;32330;51.936;7.184;2022-09-14T02:06:46;17.00;99.90
46608;DHT22;32330;51.936;7.184;2022-09-14T02:09:13;17.00;99.90
46608;DHT22;32330;51.936;7.184;2022-09-14T02:11:39;17.00;99.90
46608;DHT22;32330;51.936;7.184;2022-09-14T02:14:04;17.00;99.90
46608;DHT22;32330;51.936;7.184;2022-09-14T02:16:30;17.00;99.90
46608;DHT22;32330;51.936;7.184;2022-09-14T02:18:56;17.00;99.90
46608;DHT22;32330;51.936;7.184;2022-09-14T02:21:24;17.00;99.90
46608;DHT22;32330;51.936;7.184;2022-09-14T02:23:50;17.00;99.90
46608;DHT22;32330;51.936;7.184;2022-09-14T02:26:16;17.00;99.90
46608;DHT22;32330;51.936;7.184;2022-09-14T02:28:43;16.90;99.90
46608;DHT22;32330;51.936;7.184;2022-09-14T02:39:07;16.90;99.90
46608;DHT22;32330;51.936;7.184;2022-09-14T02:41:49;16.90;99.90
46608;DHT22;32330;51.936;7.184;2022-09-14T02:44:25;16.90;99.90
46608;DHT22;32330;51.936;7.184;2022-09-14T02:46:54;16.90;99.90
46608;DHT22;32330;51.936;7.184;2022-09-14T02:54:17;16.90;99.90
46608;DHT22;32330;51.936;7.184;2022-09-14T02:56:43;16.90;99.90
46608;DHT22;32330;51.936;7.184;2022-09-14T02:59:09;16.90;99.90
46608;DHT22;32330;51.936;7.184;2022-09-14T03:01:35;16.90;99.90
46608;DHT22;32330;51.936;7.184;2022-09-14T03:04:01;16.80;99.90
46608;DHT22;32330;51.936;7.184;2022-09-14T03:06:26;16.80;99.90
46608;DHT22;32330;51.936;7.184;2022-09-14T03:08:52;16.80;99.90
46608;DHT22;32330;51.936;7.184;2022-09-14T03:11:17;16.80;99.90
46608;DHT22;32330;51.936;7.184;2022-09-14T03:13:42;16.80;99.90
46608;DHT22;32330;51.936;7.184;2022-09-14T03:16:13;16.80;99.90
46608;DHT22;32330;51.936;7.184;2022-09-14T03:18:39;16.80;99.90
46608;DHT22;32330;51.936;7.184;2022-09-14T03:21:09;16.80;99.90
46608;DHT22;32330;51.936;7.184;2022-09-14T03:23:35;16.80;99.90
46608;DHT22;32330;51.936;7.184;2022-09-14T03:26:01;16.70;99.90
46608;DHT22;32330;51.936;7.184;2022-09-14T03:28:30;16.70;99.90
46608;DHT22;32330;51.936;7.184;2022-09-14T03:30:58;16.70;99.90
46608;DHT22;32330;51.936;7.184;2022-09-14T03:33:24;16.70;99.90
46608;DHT22;32330;51.936;7.184;2022-09-14T03:35:49;16.70;99.90
46608;DHT22;32330;51.936;7.184;2022-09-14T03:38:15;16.70;99.90
46608;DHT22;32330;51.936;7.184;2022-09-14T03:40:40;16.70;99.90
46608;DHT22;32330;51.936;7.184;2022-09-14T03:43:06;16.60;99.90
46608;DHT22;32330;51.936;7.184;2022-09-14T03:45:31;16.60;99.90
46608;DHT22;32330;51.936;7.184;2022-09-14T03:53:47;16.50;99.90
46608;DHT22;32330;51.936;7.184;2022-09-14T03:56:16;16.60;99.90
46608;DHT22;32330;51.936;7.184;2022-09-14T03:58:43;16.50;99.90
46608;DHT22;32330;51.936;7.184;2022-09-14T04:01:09;16.50;99.90
46608;DHT22;32330;51.936;7.184;2022-09-14T04:03:35;16.50;99.90
46608;DHT22;32330;51.936;7.184;2022-09-14T04:06:01;16.50;99.90
46608;DHT22;32330;51.936;7.184;2022-09-14T04:08:30;16.50;99.90
46608;DHT22;32330;51.936;7.184;2022-09-14T04:10:55;16.40;99.90
46608;DHT22;32330;51.936;7.184;2022-09-14T04:13:21;16.40;99.90
46608;DHT22;32330;51.936;7.184;2022-09-14T04:15:56;16.50;99.90
46608;DHT22;32330;51.936;7.184;2022-09-14T04:18:22;16.40;99.90
46608;DHT22;32330;51.936;7.184;2022-09-14T04:20:58;16.40;99.90
46608;DHT22;32330;51.936;7.184;2022-09-14T04:23:24;16.40;99.90
46608;DHT22;32330;51.936;7.184;2022-09-14T04:25:50;16.40;99.90
46608;DHT22;32330;51.936;7.184;2022-09-14T04:28:16;16.40;99.90
46608;DHT22;32330;51.936;7.184;2022-09-14T04:30:41;16.40;99.90
46608;DHT22;32330;51.936;7.184;2022-09-14T04:33:07;16.30;99.90
46608;DHT22;32330;51.936;7.184;2022-09-14T04:35:32;16.30;99.90
46608;DHT22;32330;51.936;7.184;2022-09-14T04:37:58;16.30;99.90
46608;DHT22;32330;51.936;7.184;2022-09-14T04:40:23;16.30;99.90
46608;DHT22;32330;51.936;7.184;2022-09-14T04:42:49;16.30;99.90
46608;DHT22;32330;51.936;7.184;2022-09-14T04:45:14;16.20;99.90
46608;DHT22;32330;51.936;7.184;2022-09-14T04:47:40;16.20;99.90
46608;DHT22;32330;51.936;7.184;2022-09-14T04:50:06;16.30;99.90
46608;DHT22;32330;51.936;7.184;2022-09-14T04:52:31;16.20;99.90
46608;DHT22;32330;51.936;7.184;2022-09-14T04:54:57;16.20;99.90
46608;DHT22;32330;51.936;7.184;2022-09-14T04:57:22;16.20;99.90
46608;DHT22;32330;51.936;7.184;2022-09-14T04:59:48;16.20;99.90
46608;DHT22;32330;51.936;7.184;2022-09-14T05:02:13;16.20;99.90
46608;DHT22;32330;51.936;7.184;2022-09-14T05:04:39;16.10;99.90
46608;DHT22;32330;51.936;7.184;2022-09-14T05:07:04;16.10;99.90
46608;DHT22;32330;51.936;7.184;2022-09-14T05:09:30;16.10;99.90
46608;DHT22;32330;51.936;7.184;2022-09-14T05:11:56;16.10;99.90
46608;DHT22;32330;51.936;7.184;2022-09-14T05:14:21;16.10;99.90
46608;DHT22;32330;51.936;7.184;2022-09-14T05:16:47;16.00;99.90
46608;DHT22;32330;51.936;7.184;2022-09-14T05:19:13;16.10;99.90
46608;DHT22;32330;51.936;7.184;2022-09-14T05:21:39;16.00;99.90
46608;DHT22;32330;51.936;7.184;2022-09-14T05:24:06;16.10;99.90
46608;DHT22;32330;51.936;7.184;2022-09-14T05:26:36;16.00;99.90
46608;DHT22;32330;51.936;7.184;2022-09-14T05:29:02;16.00;99.90
46608;DHT22;32330;51.936;7.184;2022-09-14T05:31:28;16.00;99.90
46608;DHT22;32330;51.936;7.184;2022-09-14T05:33:54;16.00;99.90
46608;DHT22;32330;51.936;7.184;2022-09-14T05:36:19;16.00;99.90
46608;DHT22;32330;51.936;7.184;2022-09-14T05:38:45;16.00;99.90
46608;DHT22;32330;51.936;7.184;2022-09-14T05:41:11;16.00;99.90
46608;DHT22;32330;51.936;7.184;2022-09-14T05:43:37;15.90;99.90
46608;DHT22;32330;51.936;7.184;2022-09-14T05:46:03;15.90;99.90
46608;DHT22;32330;51.936;7.184;2022-09-14T05:48:30;15.90;99.90
46608;DHT22;32330;51.936;7.184;2022-09-14T05:50:59;15.80;99.90
46608;DHT22;32330;51.936;7.184;2022-09-14T05:53:25;15.80;99.90
46608;DHT22;32330;51.936;7.184;2022-09-14T05:56:04;15.80;99.90
46608;DHT22;32330;51.936;7.184;2022-09-14T05:58:29;15.70;99.90
46608;DHT22;32330;51.936;7.184;2022-09-14T06:00:55;15.80;99.90
46608;DHT22;32330;51.936;7.184;2022-09-14T06:03:21;15.80;99.90
46608;DHT22;32330;51.936;7.184;2022-09-14T06:05:46;15.80;99.90
46608;DHT22;32330;51.936;7.184;2022-09-14T06:08:12;15.70;99.90
46608;DHT22;32330;51.936;7.184;2022-09-14T06:10:37;15.80;99.90
46608;DHT22;32330;51.936;7.184;2022-09-14T06:13:03;15.70;99.90
46608;DHT22;32330;51.936;7.184;2022-09-14T06:15:28;15.70;99.90
46608;DHT22;32330;51.936;7.184;2022-09-14T06:17:54;15.60;99.90
46608;DHT22;32330;51.936;7.184;2022-09-14T06:20:19;15.70;99.90
46608;DHT22;32330;51.936;7.184;2022-09-14T06:22:45;15.60;99.90
46608;DHT22;32330;51.936;7.184;2022-09-14T06:25:10;15.60;99.90
46608;DHT22;32330;51.936;7.184;2022-09-14T06:27:36;15.60;99.90
46608;DHT22;32330;51.936;7.184;2022-09-14T06:30:02;15.60;99.90
46608;DHT22;32330;51.936;7.184;2022-09-14T06:32:28;15.60;99.90
46608;DHT22;32330;51.936;7.184;2022-09-14T06:34:54;15.60;99.90
46608;DHT22;32330;51.936;7.184;2022-09-14T06:37:19;15.50;99.90
46608;DHT22;32330;51.936;7.184;2022-09-14T06:39:45;15.50;99.90
46608;DHT22;32330;51.936;7.184;2022-09-14T06:42:11;15.50;99.90
46608;DHT22;32330;51.936;7.184;2022-09-14T06:44:36;15.60;99.90
46608;DHT22;32330;51.936;7.184;2022-09-14T06:47:02;15.50;99.90
46608;DHT22;32330;51.936;7.184;2022-09-14T06:49:27;15.50;99.90
46608;DHT22;32330;51.936;7.184;2022-09-14T06:51:53;15.40;99.90
46608;DHT22;32330;51.936;7.184;2022-09-14T06:54:20;15.40;99.90
46608;DHT22;32330;51.936;7.184;2022-09-14T06:56:46;15.50;99.90
46608;DHT22;32330;51.936;7.184;2022-09-14T06:59:12;15.40;99.90
46608;DHT22;32330;51.936;7.184;2022-09-14T07:01:39;15.50;99.90
46608;DHT22;32330;51.936;7.184;2022-09-14T07:04:05;15.50;99.90
46608;DHT22;32330;51.936;7.184;2022-09-14T07:06:31;15.60;99.90
46608;DHT22;32330;51.936;7.184;2022-09-14T07:08:57;15.60;99.90
46608;DHT22;32330;51.936;7.184;2022-09-14T07:11:24;15.60;99.90
46608;DHT22;32330;51.936;7.184;2022-09-14T07:13:50;15.60;99.90
46608;DHT22;32330;51.936;7.184;2022-09-14T07:16:17;15.60;99.90
46608;DHT22;32330;51.936;7.184;2022-09-14T07:18:42;15.60;99.90
46608;DHT22;32330;51.936;7.184;2022-09-14T07:21:12;15.60;99.90
46608;DHT22;32330;51.936;7.184;2022-09-14T07:23:38;15.60;99.90
46608;DHT22;32330;51.936;7.184;2022-09-14T07:26:08;15.70;99.90
46608;DHT22;32330;51.936;7.184;2022-09-14T07:28:34;15.60;99.90
46608;DHT22;32330;51.936;7.184;2022-09-14T07:31:00;15.70;99.90
46608;DHT22;32330;51.936;7.184;2022-09-14T07:33:26;15.70;99.90
46608;DHT22;32330;51.936;7.184;2022-09-14T07:35:51;15.70;99.90
46608;DHT22;32330;51.936;7.184;2022-09-14T07:38:17;15.70;99.90
46608;DHT22;32330;51.936;7.184;2022-09-14T07:40:43;15.70;99.90
46608;DHT22;32330;51.936;7.184;2022-09-14T07:43:09;15.70;99.90
46608;DHT22;32330;51.936;7.184;2022-09-14T07:45:34;15.80;99.90
46608;DHT22;32330;51.936;7.184;2022-09-14T07:48:01;15.70;99.90
46608;DHT22;32330;51.936;7.184;2022-09-14T07:50:26;15.80;99.90
46608;DHT22;32330;51.936;7.184;2022-09-14T07:52:51;15.80;99.90
46608;DHT22;32330;51.936;7.184;2022-09-14T07:55:17;15.80;99.90
46608;DHT22;32330;51.936;7.184;2022-09-14T07:57:43;15.90;99.90
46608;DHT22;32330;51.936;7.184;2022-09-14T08:00:09;15.80;99.90
46608;DHT22;32330;51.936;7.184;2022-09-14T08:02:35;15.90;99.90
46608;DHT22;32330;51.936;7.184;2022-09-14T08:05:00;15.90;99.90
46608;DHT22;32330;51.936;7.184;2022-09-14T08:07:26;16.00;99.90
46608;DHT22;32330;51.936;7.184;2022-09-14T08:09:51;16.00;99.90
46608;DHT22;32330;51.936;7.184;2022-09-14T08:12:17;16.00;99.90
46608;DHT22;32330;51.936;7.184;2022-09-14T08:14:42;16.00;99.90
46608;DHT22;32330;51.936;7.184;2022-09-14T08:17:08;16.10;99.90
46608;DHT22;32330;51.936;7.184;2022-09-14T08:19:35;16.00;99.90
46608;DHT22;32330;51.936;7.184;2022-09-14T08:22:01;16.00;99.90
46608;DHT22;32330;51.936;7.184;2022-09-14T08:24:27;16.00;99.90
46608;DHT22;32330;51.936;7.184;2022-09-14T08:26:52;16.00;99.90
46608;DHT22;32330;51.936;7.184;2022-09-14T08:29:19;16.10;99.90
46608;DHT22;32330;51.936;7.184;2022-09-14T08:31:45;16.10;99.90
46608;DHT22;32330;51.936;7.184;2022-09-14T08:34:11;16.20;99.90
46608;DHT22;32330;51.936;7.184;2022-09-14T08:36:38;16.20;99.90
46608;DHT22;32330;51.936;7.184;2022-09-14T08:39:04;16.10;99.90
46608;DHT22;32330;51.936;7.184;2022-09-14T08:46:41;16.20;99.90
46608;DHT22;32330;51.936;7.184;2022-09-14T08:49:10;16.20;99.90
46608;DHT22;32330;51.936;7.184;2022-09-14T08:51:37;16.30;99.90
46608;DHT22;32330;51.936;7.184;2022-09-14T08:54:02;16.40;99.90
46608;DHT22;32330;51.936;7.184;2022-09-14T08:56:30;16.30;99.90
46608;DHT22;32330;51.936;7.184;2022-09-14T09:04:18;16.30;99.90
46608;DHT22;32330;51.936;7.184;2022-09-14T09:07:03;16.30;99.90
46608;DHT22;32330;51.936;7.184;2022-09-14T09:09:41;16.40;99.90
46608;DHT22;32330;51.936;7.184;2022-09-14T09:12:11;16.50;99.90
46608;DHT22;32330;51.936;7.184;2022-09-14T09:14:38;16.40;99.90
46608;DHT22;32330;51.936;7.184;2022-09-14T09:17:12;16.40;99.90
46608;DHT22;32330;51.936;7.184;2022-09-14T09:19:51;16.40;99.90
46608;DHT22;32330;51.936;7.184;2022-09-14T09:22:20;16.50;99.90
46608;DHT22;32330;51.936;7.184;2022-09-14T09:24:51;16.50;99.90
46608;DHT22;32330;51.936;7.184;2022-09-14T09:27:17;16.50;99.90
46608;DHT22;32330;51.936;7.184;2022-09-14T09:29:43;16.60;99.90
46608;DHT22;32330;51.936;7.184;2022-09-14T09:32:13;16.50;99.90
46608;DHT22;32330;51.936;7.184;2022-09-14T09:34:39;16.50;99.90
46608;DHT22;32330;51.936;7.184;2022-09-14T09:37:04;16.60;99.90
46608;DHT22;32330;51.936;7.184;2022-09-14T09:39:30;16.50;99.90
46608;DHT22;32330;51.936;7.184;2022-09-14T09:41:57;16.60;99.90
46608;DHT22;32330;51.936;7.184;2022-09-14T09:44:25;16.60;99.90
46608;DHT22;32330;51.936;7.184;2022-09-14T09:46:52;16.60;99.90
46608;DHT22;32330;51.936;7.184;2022-09-14T09:49:22;16.70;99.90
46608;DHT22;32330;51.936;7.184;2022-09-14T09:51:49;16.60;99.90
46608;DHT22;32330;51.936;7.184;2022-09-14T09:59:32;16.60;99.90
46608;DHT22;32330;51.936;7.184;2022-09-14T10:07:24;16.70;99.90
46608;DHT22;32330;51.936;7.184;2022-09-14T10:10:00;16.70;99.90
46608;DHT22;32330;51.936;7.184;2022-09-14T10:12:26;16.70;99.90
46608;DHT22;32330;51.936;7.184;2022-09-14T10:17:37;16.70;99.90
46608;DHT22;32330;51.936;7.184;2022-09-14T10:20:02;16.80;99.90
46608;DHT22;32330;51.936;7.184;2022-09-14T10:22:29;16.80;99.90
46608;DHT22;32330;51.936;7.184;2022-09-14T10:27:55;16.80;99.90
46608;DHT22;32330;51.936;7.184;2022-09-14T10:30:32;16.80;99.90
46608;DHT22;32330;51.936;7.184;2022-09-14T10:33:09;16.90;99.90
46608;DHT22;32330;51.936;7.184;2022-09-14T10:35:44;16.90;99.90
46608;DHT22;32330;51.936;7.184;2022-09-14T10:38:21;16.90;99.90
46608;DHT22;32330;51.936;7.184;2022-09-14T10:40:51;16.90;99.90
46608;DHT22;32330;51.936;7.184;2022-09-14T10:43:22;16.80;99.90
46608;DHT22;32330;51.936;7.184;2022-09-14T10:45:49;16.90;99.90
46608;DHT22;32330;51.936;7.184;2022-09-14T10:48:24;16.90;99.90
46608;DHT22;32330;51.936;7.184;2022-09-14T10:50:53;16.90;99.90
46608;DHT22;32330;51.936;7.184;2022-09-14T10:55:58;17.00;99.90
46608;DHT22;32330;51.936;7.184;2022-09-14T10:58:38;16.90;99.90
46608;DHT22;32330;51.936;7.184;2022-09-14T11:09:20;17.00;99.90
46608;DHT22;32330;51.936;7.184;2022-09-14T11:14:29;17.00;99.90
46608;DHT22;32330;51.936;7.184;2022-09-14T11:17:04;17.00;99.90
46608;DHT22;32330;51.936;7.184;2022-09-14T11:22:44;16.90;99.90
46608;DHT22;32330;51.936;7.184;2022-09-14T11:27:29;17.00;99.90
46608;DHT22;32330;51.936;7.184;2022-09-14T11:30:18;17.00;99.90
46608;DHT22;32330;51.936;7.184;2022-09-14T11:32:46;17.00;99.90
46608;DHT22;32330;51.936;7.184;2022-09-14T11:35:15;17.00;99.90
46608;DHT22;32330;51.936;7.184;2022-09-14T11:37:43;16.90;99.90
46608;DHT22;32330;51.936;7.184;2022-09-14T11:42:38;17.00;99.90
46608;DHT22;32330;51.936;7.184;2022-09-14T11:45:05;17.00;99.90
46608;DHT22;32330;51.936;7.184;2022-09-14T11:47:36;17.10;99.90
46608;DHT22;32330;51.936;7.184;2022-09-14T11:52:33;17.00;99.90
46608;DHT22;32330;51.936;7.184;2022-09-14T11:54:59;17.10;99.90
46608;DHT22;32330;51.936;7.184;2022-09-14T11:57:26;17.10;99.90
46608;DHT22;32330;51.936;7.184;2022-09-14T11:59:54;17.10;99.90
46608;DHT22;32330;51.936;7.184;2022-09-14T12:12:39;17.00;99.90
46608;DHT22;32330;51.936;7.184;2022-09-14T12:15:14;17.10;99.90
46608;DHT22;32330;51.936;7.184;2022-09-14T12:17:39;17.10;99.90
46608;DHT22;32330;51.936;7.184;2022-09-14T12:20:19;17.00;99.90
46608;DHT22;32330;51.936;7.184;2022-09-14T12:22:45;17.10;99.90
46608;DHT22;32330;51.936;7.184;2022-09-14T12:25:16;17.10;99.90
46608;DHT22;32330;51.936;7.184;2022-09-14T12:27:43;17.10;99.90
46608;DHT22;32330;51.936;7.184;2022-09-14T12:32:53;17.10;99.90
46608;DHT22;32330;51.936;7.184;2022-09-14T12:40:47;17.10;99.90
46608;DHT22;32330;51.936;7.184;2022-09-14T12:46:09;17.20;99.90
46608;DHT22;32330;51.936;7.184;2022-09-14T13:03:50;17.20;99.90
46608;DHT22;32330;51.936;7.184;2022-09-14T13:06:16;17.30;99.90
46608;DHT22;32330;51.936;7.184;2022-09-14T13:08:42;17.30;99.90
46608;DHT22;32330;51.936;7.184;2022-09-14T13:11:08;17.40;99.90
46608;DHT22;32330;51.936;7.184;2022-09-14T13:13:33;17.40;99.90
46608;DHT22;32330;51.936;7.184;2022-09-14T13:16:00;17.40;99.90
46608;DHT22;32330;51.936;7.184;2022-09-14T13:18:28;17.50;99.90
46608;DHT22;32330;51.936;7.184;2022-09-14T13:20:55;17.50;99.90
46608;DHT22;32330;51.936;7.184;2022-09-14T13:23:35;17.50;99.90
46608;DHT22;32330;51.936;7.184;2022-09-14T13:26:07;17.60;99.90
46608;DHT22;32330;51.936;7.184;2022-09-14T13:28:33;17.60;99.90
46608;DHT22;32330;51.936;7.184;2022-09-14T13:30:59;17.60;99.90
46608;DHT22;32330;51.936;7.184;2022-09-14T13:33:26;17.60;99.90
46608;DHT22;32330;51.936;7.184;2022-09-14T13:35:53;17.70;99.90
46608;DHT22;32330;51.936;7.184;2022-09-14T13:38:23;17.70;99.90
46608;DHT22;32330;51.936;7.184;2022-09-14T13:40:50;17.70;99.90
46608;DHT22;32330;51.936;7.184;2022-09-14T13:43:16;17.70;99.90
46608;DHT22;32330;51.936;7.184;2022-09-14T13:45:42;17.70;99.90
46608;DHT22;32330;51.936;7.184;2022-09-14T13:48:07;17.70;99.90
46608;DHT22;32330;51.936;7.184;2022-09-14T13:50:33;17.70;99.90
46608;DHT22;32330;51.936;7.184;2022-09-14T13:52:59;17.40;99.90
46608;DHT22;32330;51.936;7.184;2022-09-14T13:58:06;17.60;99.90
46608;DHT22;32330;51.936;7.184;2022-09-14T14:05:54;17.60;99.90
46608;DHT22;32330;51.936;7.184;2022-09-14T14:08:41;17.60;99.90
46608;DHT22;32330;51.936;7.184;2022-09-14T14:11:05;17.60;99.90
46608;DHT22;32330;51.936;7.184;2022-09-14T14:13:33;17.60;99.90
46608;DHT22;32330;51.936;7.184;2022-09-14T14:16:12;17.60;99.90
46608;DHT22;32330;51.936;7.184;2022-09-14T14:18:39;17.60;99.90
46608;DHT22;32330;51.936;7.184;2022-09-14T14:23:46;17.60;99.90
46608;DHT22;32330;51.936;7.184;2022-09-14T14:26:19;17.60;99.90
46608;DHT22;32330;51.936;7.184;2022-09-14T14:28:45;17.70;99.90
46608;DHT22;32330;51.936;7.184;2022-09-14T14:31:12;17.70;99.90
46608;DHT22;32330;51.936;7.184;2022-09-14T14:33:45;17.70;99.90
46608;DHT22;32330;51.936;7.184;2022-09-14T14:36:11;17.70;99.90
46608;DHT22;32330;51.936;7.184;2022-09-14T14:38:37;17.70;99.90
46608;DHT22;32330;51.936;7.184;2022-09-14T14:41:02;17.70;99.90
46608;DHT22;32330;51.936;7.184;2022-09-14T14:43:28;17.80;99.90
46608;DHT22;32330;51.936;7.184;2022-09-14T14:45:55;17.70;99.90
46608;DHT22;32330;51.936;7.184;2022-09-14T14:48:21;17.80;99.90
46608;DHT22;32330;51.936;7.184;2022-09-14T14:50:47;17.80;99.90
46608;DHT22;32330;51.936;7.184;2022-09-14T14:53:13;17.80;99.90
46608;DHT22;32330;51.936;7.184;2022-09-14T14:55:39;17.80;99.90
46608;DHT22;32330;51.936;7.184;2022-09-14T14:58:06;17.80;99.90
46608;DHT22;32330;51.936;7.184;2022-09-14T15:00:34;17.80;99.90
46608;DHT22;32330;51.936;7.184;2022-09-14T15:03:00;17.80;99.90
46608;DHT22;32330;51.936;7.184;2022-09-14T15:05:26;17.80;99.90
46608;DHT22;32330;51.936;7.184;2022-09-14T15:07:51;17.80;99.90
46608;DHT22;32330;51.936;7.184;2022-09-14T15:10:19;17.90;99.90
46608;DHT22;32330;51.936;7.184;2022-09-14T15:12:45;17.80;99.90
46608;DHT22;32330;51.936;7.184;2022-09-14T15:15:12;17.90;99.90
46608;DHT22;32330;51.936;7.184;2022-09-14T15:17:38;17.90;99.90
46608;DHT22;32330;51.936;7.184;2022-09-14T15:20:03;17.90;99.90
46608;DHT22;32330;51.936;7.184;2022-09-14T15:22:29;18.00;99.90
46608;DHT22;32330;51.936;7.184;2022-09-14T15:24:55;17.90;99.90
46608;DHT22;32330;51.936;7.184;2022-09-14T15:27:20;18.00;99.90
46608;DHT22;32330;51.936;7.184;2022-09-14T15:29:45;17.90;99.90
46608;DHT22;32330;51.936;7.184;2022-09-14T15:32:11;17.90;99.90
46608;DHT22;32330;51.936;7.184;2022-09-14T15:34:36;17.70;99.90
46608;DHT22;32330;51.936;7.184;2022-09-14T15:37:02;17.70;99.90
46608;DHT22;32330;51.936;7.184;2022-09-14T15:39:28;17.80;99.90
46608;DHT22;32330;51.936;7.184;2022-09-14T15:41:54;17.90;99.90
46608;DHT22;32330;51.936;7.184;2022-09-14T15:44:19;17.90;99.90
46608;DHT22;32330;51.936;7.184;2022-09-14T15:46:45;17.90;99.90
46608;DHT22;32330;51.936;7.184;2022-09-14T15:49:12;17.80;99.90
46608;DHT22;32330;51.936;7.184;2022-09-14T15:51:41;17.90;99.90
46608;DHT22;32330;51.936;7.184;2022-09-14T15:54:06;17.70;99.90
46608;DHT22;32330;51.936;7.184;2022-09-14T15:56:32;17.70;99.90
46608;DHT22;32330;51.936;7.184;2022-09-14T15:58:57;17.80;99.90
46608;DHT22;32330;51.936;7.184;2022-09-14T16:01:23;17.80;99.90
46608;DHT22;32330;51.936;7.184;2022-09-14T16:03:54;17.70;99.90
46608;DHT22;32330;51.936;7.184;2022-09-14T16:06:19;17.60;99.90
46608;DHT22;32330;51.936;7.184;2022-09-14T16:08:45;17.70;99.90
46608;DHT22;32330;51.936;7.184;2022-09-14T16:11:10;17.70;99.90
46608;DHT22;32330;51.936;7.184;2022-09-14T16:13:36;17.80;99.90
46608;DHT22;32330;51.936;7.184;2022-09-14T16:16:05;17.80;99.90
46608;DHT22;32330;51.936;7.184;2022-09-14T16:18:31;17.80;99.90
46608;DHT22;32330;51.936;7.184;2022-09-14T16:21:02;17.70;99.90
46608;DHT22;32330;51.936;7.184;2022-09-14T16:23:27;17.80;99.90
46608;DHT22;32330;51.936;7.184;2022-09-14T16:25:53;17.60;99.90
46608;DHT22;32330;51.936;7.184;2022-09-14T16:28:18;17.60;99.90
46608;DHT22;32330;51.936;7.184;2022-09-14T16:30:44;17.60;99.90
46608;DHT22;32330;51.936;7.184;2022-09-14T16:33:09;17.60;99.90
46608;DHT22;32330;51.936;7.184;2022-09-14T16:35:35;17.50;99.90
46608;DHT22;32330;51.936;7.184;2022-09-14T16:38:00;17.50;99.90
46608;DHT22;32330;51.936;7.184;2022-09-14T16:40:26;17.50;99.90
46608;DHT22;32330;51.936;7.184;2022-09-14T16:42:53;17.40;99.90
46608;DHT22;32330;51.936;7.184;2022-09-14T16:45:19;17.40;99.90
46608;DHT22;32330;51.936;7.184;2022-09-14T16:47:44;17.30;99.90
46608;DHT22;32330;51.936;7.184;2022-09-14T16:50:10;17.40;99.90
46608;DHT22;32330;51.936;7.184;2022-09-14T16:52:35;17.40;99.90
46608;DHT22;32330;51.936;7.184;2022-09-14T16:55:01;17.40;99.90
46608;DHT22;32330;51.936;7.184;2022-09-14T16:57:26;17.40;99.90
46608;DHT22;32330;51.936;7.184;2022-09-14T16:59:54;17.40;99.90
46608;DHT22;32330;51.936;7.184;2022-09-14T17:02:19;17.30;99.90
46608;DHT22;32330;51.936;7.184;2022-09-14T17:04:45;17.20;99.90
46608;DHT22;32330;51.936;7.184;2022-09-14T17:07:10;17.20;99.90
46608;DHT22;32330;51.936;7.184;2022-09-14T17:09:36;17.10;99.90
46608;DHT22;32330;51.936;7.184;2022-09-14T17:12:15;17.10;99.90
46608;DHT22;32330;51.936;7.184;2022-09-14T17:14:41;17.10;99.90
46608;DHT22;32330;51.936;7.184;2022-09-14T17:17:06;17.00;99.90
46608;DHT22;32330;51.936;7.184;2022-09-14T17:19:32;17.10;99.90
46608;DHT22;32330;51.936;7.184;2022-09-14T17:21:58;17.00;99.90
46608;DHT22;32330;51.936;7.184;2022-09-14T17:24:24;17.00;99.90
46608;DHT22;32330;51.936;7.184;2022-09-14T17:26:50;17.00;99.90
46608;DHT22;32330;51.936;7.184;2022-09-14T17:29:16;16.90;99.90
46608;DHT22;32330;51.936;7.184;2022-09-14T17:31:43;16.90;99.90
46608;DHT22;32330;51.936;7.184;2022-09-14T17:34:10;16.80;99.90
46608;DHT22;32330;51.936;7.184;2022-09-14T17:36:36;16.80;99.90
46608;DHT22;32330;51.936;7.184;2022-09-14T17:39:03;16.60;99.90
46608;DHT22;32330;51.936;7.184;2022-09-14T17:41:30;16.60;99.90
46608;DHT22;32330;51.936;7.184;2022-09-14T17:43:59;16.60;99.90